createdAt,value
2017-06-13T00:00:16.311Z,18.05
2017-06-13T00:01:15.661Z,17.89
2017-06-13T00:02:15.643Z,18
2017-06-13T00:03:15.936Z,17.96
2017-06-13T00:04:15.906Z,17.96
2017-06-13T00:05:16.222Z,17.86
2017-06-13T00:06:16.352Z,17.98
2017-06-13T00:07:16.264Z,17.95
2017-06-13T00:08:15.862Z,18.02
2017-06-13T00:09:15.830Z,18.02
2017-06-13T00:10:16.218Z,17.96
2017-06-13T00:11:15.800Z,18.04
2017-06-13T00:12:16.093Z,18
2017-06-13T00:13:16.132Z,17.98
2017-06-13T00:14:15.440Z,17.96
2017-06-13T00:15:15.433Z,18
2017-06-13T00:16:16.131Z,18
2017-06-13T00:17:15.726Z,18
2017-06-13T00:18:15.380Z,17.96
2017-06-13T00:19:15.680Z,18.05
2017-06-13T00:20:16.070Z,18.01
2017-06-13T00:21:15.700Z,18.04
2017-06-13T00:22:15.931Z,18.05
2017-06-13T00:23:15.610Z,18
2017-06-13T00:24:16.034Z,18.02
2017-06-13T00:25:15.900Z,17.9
2017-06-13T00:26:15.558Z,17.95
2017-06-13T00:27:15.563Z,17.92
2017-06-13T00:28:15.219Z,17.98
2017-06-13T00:29:15.212Z,17.98
2017-06-13T00:30:15.811Z,18.07
2017-06-13T00:31:15.803Z,18.02
2017-06-13T00:32:15.474Z,18.11
2017-06-13T00:33:15.776Z,18.07
2017-06-13T00:34:15.440Z,18.11
2017-06-13T00:35:15.721Z,18.04
2017-06-13T00:36:15.712Z,18.1
2017-06-13T00:37:15.722Z,18.1
2017-06-13T00:38:15.369Z,18.04
2017-06-13T00:39:15.659Z,18.11
2017-06-13T00:40:15.721Z,18.05
2017-06-13T00:41:15.328Z,18.04
2017-06-13T00:42:15.000Z,18.02
2017-06-13T00:43:15.603Z,18.01
2017-06-13T00:44:15.580Z,18.04
2017-06-13T00:45:15.277Z,18.01
2017-06-13T00:46:15.552Z,18.01
2017-06-13T00:47:15.541Z,18.04
2017-06-13T00:48:14.920Z,17.93
2017-06-13T00:49:15.198Z,17.86
2017-06-13T00:50:15.501Z,17.83
2017-06-13T00:51:15.469Z,17.62
2017-06-13T00:52:15.152Z,17.65
2017-06-13T00:53:15.443Z,17.67
2017-06-13T00:54:15.123Z,17.74
2017-06-13T00:55:15.424Z,17.8
2017-06-13T00:56:15.392Z,17.83
2017-06-13T00:57:15.139Z,17.83
2017-06-13T00:58:15.362Z,17.83
2017-06-13T00:59:15.375Z,17.9
2017-06-13T01:00:15.025Z,17.89
2017-06-13T01:01:15.323Z,17.89
2017-06-13T01:02:15.003Z,18
2017-06-13T01:03:14.970Z,17.93
2017-06-13T01:04:15.272Z,18.04
2017-06-13T01:05:14.940Z,18.02
2017-06-13T01:06:15.240Z,17.9
2017-06-13T01:07:14.920Z,17.78
2017-06-13T01:08:15.209Z,17.8
2017-06-13T01:09:14.880Z,17.75
2017-06-13T01:10:14.671Z,17.74
2017-06-13T01:11:14.850Z,17.82
2017-06-13T01:12:15.140Z,17.89
2017-06-13T01:13:14.832Z,17.8
2017-06-13T01:14:14.498Z,17.72
2017-06-13T01:15:15.094Z,17.8
2017-06-13T01:16:14.787Z,17.72
2017-06-13T01:17:15.075Z,17.8
2017-06-13T01:18:14.731Z,17.8
2017-06-13T01:19:14.743Z,17.77
2017-06-13T01:20:15.032Z,17.93
2017-06-13T01:21:14.495Z,17.75
2017-06-13T01:22:14.979Z,17.82
2017-06-13T01:23:14.978Z,17.8
2017-06-13T01:24:14.949Z,17.77
2017-06-13T01:25:14.324Z,17.75
2017-06-13T01:26:14.618Z,17.82
2017-06-13T01:27:14.599Z,17.77
2017-06-13T01:28:14.896Z,17.85
2017-06-13T01:29:14.887Z,17.8
2017-06-13T01:30:14.866Z,17.78
2017-06-13T01:31:14.841Z,17.82
2017-06-13T01:32:14.534Z,17.87
2017-06-13T01:33:14.499Z,17.75
2017-06-13T01:34:14.185Z,17.74
2017-06-13T01:35:14.180Z,17.8
2017-06-13T01:36:14.450Z,17.77
2017-06-13T01:37:14.739Z,17.68
2017-06-13T01:38:14.720Z,17.62
2017-06-13T01:39:14.719Z,17.62
2017-06-13T01:40:14.450Z,17.51
2017-06-13T01:41:14.690Z,17.58
2017-06-13T01:42:14.050Z,17.6
2017-06-13T01:43:14.663Z,17.46
2017-06-13T01:44:14.633Z,17.54
2017-06-13T01:45:14.383Z,17.64
2017-06-13T01:46:14.600Z,17.52
2017-06-13T01:47:14.581Z,17.64
2017-06-13T01:48:14.313Z,17.52
2017-06-13T01:49:14.568Z,17.65
2017-06-13T01:50:14.538Z,17.54
2017-06-13T01:51:14.219Z,17.54
2017-06-13T01:52:14.511Z,17.6
2017-06-13T01:53:14.189Z,17.64
2017-06-13T01:54:14.550Z,17.67
2017-06-13T01:55:14.200Z,17.64
2017-06-13T01:56:14.450Z,17.67
2017-06-13T01:57:14.268Z,17.62
2017-06-13T01:58:14.123Z,17.58
2017-06-13T01:59:14.411Z,17.51
2017-06-13T02:00:14.406Z,17.52
2017-06-13T02:01:14.361Z,17.58
2017-06-13T02:02:14.040Z,17.65
2017-06-13T02:03:13.712Z,17.67
2017-06-13T02:04:14.411Z,17.68
2017-06-13T02:05:14.294Z,17.64
2017-06-13T02:06:13.660Z,17.65
2017-06-13T02:07:14.274Z,17.7
2017-06-13T02:08:14.000Z,17.51
2017-06-13T02:09:14.244Z,17.49
2017-06-13T02:10:13.930Z,17.6
2017-06-13T02:11:13.898Z,17.6
2017-06-13T02:12:13.873Z,17.64
2017-06-13T02:13:14.224Z,17.55
2017-06-13T02:14:14.210Z,17.46
2017-06-13T02:15:14.139Z,17.49
2017-06-13T02:16:14.201Z,17.52
2017-06-13T02:17:13.501Z,17.55
2017-06-13T02:18:13.890Z,17.48
2017-06-13T02:19:14.088Z,17.44
2017-06-13T02:20:14.139Z,17.48
2017-06-13T02:21:13.427Z,17.46
2017-06-13T02:22:14.035Z,17.45
2017-06-13T02:23:14.006Z,17.45
2017-06-13T02:24:14.000Z,17.46
2017-06-13T02:25:13.970Z,17.48
2017-06-13T02:26:13.984Z,17.55
2017-06-13T02:27:13.644Z,17.51
2017-06-13T02:28:13.620Z,17.46
2017-06-13T02:29:13.604Z,17.52
2017-06-13T02:30:13.581Z,17.52
2017-06-13T02:31:13.593Z,17.48
2017-06-13T02:32:13.553Z,17.4
2017-06-13T02:33:13.243Z,17.46
2017-06-13T02:34:13.831Z,17.44
2017-06-13T02:35:13.870Z,17.4
2017-06-13T02:36:13.508Z,17.46
2017-06-13T02:37:13.176Z,17.42
2017-06-13T02:38:13.451Z,17.48
2017-06-13T02:39:13.443Z,17.48
2017-06-13T02:40:13.729Z,17.49
2017-06-13T02:41:13.100Z,17.51
2017-06-13T02:42:13.404Z,17.4
2017-06-13T02:43:13.780Z,17.46
2017-06-13T02:44:13.682Z,17.46
2017-06-13T02:45:13.341Z,17.48
2017-06-13T02:46:13.643Z,17.39
2017-06-13T02:47:13.623Z,17.51
2017-06-13T02:48:13.604Z,17.45
2017-06-13T02:49:13.283Z,17.48
2017-06-13T02:50:13.571Z,17.44
2017-06-13T02:51:13.566Z,17.44
2017-06-13T02:52:13.244Z,17.4
2017-06-13T02:53:13.572Z,17.44
2017-06-13T02:54:13.507Z,17.37
2017-06-13T02:55:13.203Z,17.39
2017-06-13T02:56:13.171Z,17.37
2017-06-13T02:57:13.464Z,17.33
2017-06-13T02:58:13.450Z,17.33
2017-06-13T02:59:13.120Z,17.44
2017-06-13T03:00:13.412Z,17.34
2017-06-13T03:01:13.093Z,17.37
2017-06-13T03:02:13.402Z,17.33
2017-06-13T03:03:12.742Z,17.36
2017-06-13T03:04:13.350Z,17.45
2017-06-13T03:05:13.040Z,17.42
2017-06-13T03:06:12.689Z,17.3
2017-06-13T03:07:12.998Z,17.44
2017-06-13T03:08:12.684Z,17.4
2017-06-13T03:09:12.658Z,17.44
2017-06-13T03:10:12.632Z,17.37
2017-06-13T03:11:13.242Z,17.33
2017-06-13T03:12:12.600Z,17.34
2017-06-13T03:13:12.895Z,17.36
2017-06-13T03:14:12.602Z,17.34
2017-06-13T03:15:13.184Z,17.39
2017-06-13T03:16:12.847Z,17.33
2017-06-13T03:17:12.820Z,17.46
2017-06-13T03:18:12.809Z,17.44
2017-06-13T03:19:12.799Z,17.45
2017-06-13T03:20:12.772Z,17.45
2017-06-13T03:21:13.071Z,17.45
2017-06-13T03:22:13.054Z,17.34
2017-06-13T03:23:13.050Z,17.33
2017-06-13T03:24:13.028Z,17.44
2017-06-13T03:25:12.698Z,17.44
2017-06-13T03:26:12.690Z,17.48
2017-06-13T03:27:12.361Z,17.55
2017-06-13T03:28:12.389Z,17.44
2017-06-13T03:29:12.629Z,17.45
2017-06-13T03:30:12.618Z,17.46
2017-06-13T03:31:12.590Z,17.46
2017-06-13T03:32:12.925Z,17.44
2017-06-13T03:33:12.610Z,17.48
2017-06-13T03:34:12.863Z,17.42
2017-06-13T03:35:12.528Z,17.45
2017-06-13T03:36:12.839Z,17.44
2017-06-13T03:37:12.511Z,17.45
2017-06-13T03:38:12.791Z,17.45
2017-06-13T03:39:12.772Z,17.46
2017-06-13T03:40:12.785Z,17.48
2017-06-13T03:41:12.751Z,17.44
2017-06-13T03:42:12.420Z,17.44
2017-06-13T03:43:12.422Z,17.3
2017-06-13T03:44:12.402Z,17.31
2017-06-13T03:45:12.070Z,17.16
2017-06-13T03:46:12.350Z,17.29
2017-06-13T03:47:12.347Z,17.33
2017-06-13T03:48:12.321Z,17.33
2017-06-13T03:49:12.448Z,17.34
2017-06-13T03:50:12.597Z,17.34
2017-06-13T03:51:12.281Z,17.36
2017-06-13T03:52:12.573Z,17.39
2017-06-13T03:53:11.941Z,17.44
2017-06-13T03:54:12.242Z,17.4
2017-06-13T03:55:12.360Z,17.46
2017-06-13T03:56:12.511Z,17.42
2017-06-13T03:57:12.190Z,17.49
2017-06-13T03:58:12.171Z,17.52
2017-06-13T03:59:12.149Z,17.45
2017-06-13T04:00:12.197Z,17.42
2017-06-13T04:01:11.822Z,17.54
2017-06-13T04:02:12.104Z,17.46
2017-06-13T04:03:12.390Z,17.45
2017-06-13T04:04:12.379Z,17.33
2017-06-13T04:05:12.202Z,17.34
2017-06-13T04:06:12.359Z,17.39
2017-06-13T04:07:12.329Z,17.44
2017-06-13T04:08:12.320Z,17.46
2017-06-13T04:09:11.986Z,17.4
2017-06-13T04:10:12.280Z,17.48
2017-06-13T04:11:12.270Z,17.45
2017-06-13T04:12:12.280Z,17.33
2017-06-13T04:13:12.231Z,17.31
2017-06-13T04:14:11.601Z,17.44
2017-06-13T04:15:12.210Z,17.44
2017-06-13T04:16:12.174Z,17.4
2017-06-13T04:17:11.916Z,17.31
2017-06-13T04:18:11.842Z,17.49
2017-06-13T04:19:11.881Z,17.48
2017-06-13T04:20:12.111Z,17.51
2017-06-13T04:21:12.111Z,17.49
2017-06-13T04:22:11.772Z,17.44
2017-06-13T04:23:12.067Z,17.54
2017-06-13T04:24:11.445Z,17.46
2017-06-13T04:25:12.050Z,17.55
2017-06-13T04:26:12.031Z,17.52
2017-06-13T04:27:12.032Z,17.65
2017-06-13T04:28:11.994Z,17.6
2017-06-13T04:29:11.710Z,17.62
2017-06-13T04:30:12.102Z,17.56
2017-06-13T04:31:11.752Z,17.51
2017-06-13T04:32:11.935Z,17.46
2017-06-13T04:33:12.021Z,17.54
2017-06-13T04:34:11.299Z,17.6
2017-06-13T04:35:11.884Z,17.51
2017-06-13T04:36:11.554Z,17.52
2017-06-13T04:37:11.860Z,17.54
2017-06-13T04:38:11.840Z,17.48
2017-06-13T04:39:11.512Z,17.49
2017-06-13T04:40:11.803Z,17.51
2017-06-13T04:41:11.480Z,17.56
2017-06-13T04:42:11.476Z,17.54
2017-06-13T04:43:11.503Z,17.51
2017-06-13T04:44:11.743Z,17.58
2017-06-13T04:45:11.721Z,17.44
2017-06-13T04:46:11.703Z,17.48
2017-06-13T04:47:11.689Z,17.44
2017-06-13T04:48:11.675Z,17.51
2017-06-13T04:49:11.357Z,17.49
2017-06-13T04:50:11.355Z,17.54
2017-06-13T04:51:11.620Z,17.36
2017-06-13T04:52:11.307Z,17.46
2017-06-13T04:53:11.592Z,17.46
2017-06-13T04:54:11.272Z,17.44
2017-06-13T04:55:11.572Z,17.45
2017-06-13T04:56:11.241Z,17.44
2017-06-13T04:57:11.225Z,17.49
2017-06-13T04:58:11.631Z,17.62
2017-06-13T04:59:11.197Z,17.6
2017-06-13T05:00:10.869Z,17.51
2017-06-13T05:01:11.158Z,17.62
2017-06-13T05:02:11.450Z,17.64
2017-06-13T05:03:11.141Z,17.64
2017-06-13T05:04:11.109Z,17.64
2017-06-13T05:05:11.098Z,17.56
2017-06-13T05:06:11.430Z,17.42
2017-06-13T05:07:11.056Z,17.44
2017-06-13T05:08:10.792Z,17.4
2017-06-13T05:09:11.342Z,17.37
2017-06-13T05:10:11.380Z,17.45
2017-06-13T05:11:11.323Z,17.51
2017-06-13T05:12:11.021Z,17.65
2017-06-13T05:13:10.976Z,17.65
2017-06-13T05:14:10.980Z,17.6
2017-06-13T05:15:10.947Z,17.62
2017-06-13T05:16:10.638Z,17.62
2017-06-13T05:17:11.216Z,17.54
2017-06-13T05:18:11.263Z,17.65
2017-06-13T05:19:10.862Z,17.67
2017-06-13T05:20:10.888Z,17.67
2017-06-13T05:21:11.165Z,17.6
2017-06-13T05:22:11.190Z,17.65
2017-06-13T05:23:10.800Z,17.75
2017-06-13T05:24:11.109Z,17.85
2017-06-13T05:25:11.100Z,17.83
2017-06-13T05:26:11.062Z,17.86
2017-06-13T05:27:10.740Z,17.75
2017-06-13T05:28:10.726Z,17.68
2017-06-13T05:29:11.082Z,17.62
2017-06-13T05:30:10.700Z,17.64
2017-06-13T05:31:11.017Z,17.67
2017-06-13T05:32:10.369Z,17.74
2017-06-13T05:33:10.950Z,17.87
2017-06-13T05:34:10.331Z,17.86
2017-06-13T05:35:10.376Z,17.83
2017-06-13T05:36:10.621Z,17.85
2017-06-13T05:37:10.590Z,17.85
2017-06-13T05:38:10.591Z,17.78
2017-06-13T05:39:10.883Z,17.78
2017-06-13T05:40:10.849Z,17.83
2017-06-13T05:41:10.850Z,17.93
2017-06-13T05:42:10.209Z,17.87
2017-06-13T05:43:10.810Z,17.96
2017-06-13T05:44:10.170Z,17.89
2017-06-13T05:45:10.840Z,17.95
2017-06-13T05:46:10.756Z,17.98
2017-06-13T05:47:10.130Z,17.96
2017-06-13T05:48:10.428Z,17.98
2017-06-13T05:49:10.733Z,18.08
2017-06-13T05:50:10.391Z,18.07
2017-06-13T05:51:10.366Z,18.19
2017-06-13T05:52:10.663Z,18.12
2017-06-13T05:53:10.660Z,18.19
2017-06-13T05:54:10.631Z,18.26
2017-06-13T05:55:10.449Z,18.29
2017-06-13T05:56:10.313Z,18.26
2017-06-13T05:57:10.272Z,18.3
2017-06-13T05:58:10.302Z,18.37
2017-06-13T05:59:10.556Z,18.23
2017-06-13T06:00:10.238Z,18.29
2017-06-13T06:01:10.019Z,18.26
2017-06-13T06:02:10.326Z,18.15
2017-06-13T06:03:10.299Z,18.26
2017-06-13T06:04:10.195Z,18.26
2017-06-13T06:05:10.184Z,18.22
2017-06-13T06:06:10.456Z,18.26
2017-06-13T06:07:09.830Z,18.4
2017-06-13T06:08:10.419Z,18.35
2017-06-13T06:09:10.392Z,18.4
2017-06-13T06:10:09.781Z,18.38
2017-06-13T06:11:10.369Z,18.45
2017-06-13T06:12:10.358Z,18.5
2017-06-13T06:13:10.339Z,18.45
2017-06-13T06:14:09.724Z,18.35
2017-06-13T06:15:10.010Z,18.42
2017-06-13T06:16:09.984Z,18.41
2017-06-13T06:17:09.963Z,18.48
2017-06-13T06:18:10.260Z,18.44
2017-06-13T06:19:09.933Z,18.47
2017-06-13T06:20:09.979Z,18.59
2017-06-13T06:21:10.207Z,18.52
2017-06-13T06:22:09.899Z,18.55
2017-06-13T06:23:09.911Z,18.5
2017-06-13T06:24:09.874Z,18.63
2017-06-13T06:25:09.851Z,18.69
2017-06-13T06:26:09.883Z,18.75
2017-06-13T06:27:09.840Z,18.65
2017-06-13T06:28:09.915Z,18.7
2017-06-13T06:29:09.807Z,18.66
2017-06-13T06:30:09.778Z,18.65
2017-06-13T06:31:09.760Z,18.63
2017-06-13T06:32:09.747Z,18.6
2017-06-13T06:33:09.424Z,18.62
2017-06-13T06:34:09.739Z,18.62
2017-06-13T06:35:10.008Z,18.65
2017-06-13T06:36:10.079Z,18.77
2017-06-13T06:37:09.663Z,18.8
2017-06-13T06:38:09.657Z,18.8
2017-06-13T06:39:09.654Z,18.82
2017-06-13T06:40:09.954Z,18.8
2017-06-13T06:41:09.917Z,18.85
2017-06-13T06:42:09.300Z,18.84
2017-06-13T06:43:09.911Z,18.84
2017-06-13T06:44:09.578Z,18.99
2017-06-13T06:45:09.558Z,18.96
2017-06-13T06:46:09.840Z,18.87
2017-06-13T06:47:09.907Z,18.88
2017-06-13T06:48:09.830Z,18.99
2017-06-13T06:49:09.829Z,19.06
2017-06-13T06:50:09.795Z,18.93
2017-06-13T06:51:09.155Z,18.93
2017-06-13T06:52:09.760Z,18.9
2017-06-13T06:53:09.808Z,18.85
2017-06-13T06:54:09.739Z,18.92
2017-06-13T06:55:09.721Z,18.85
2017-06-13T06:56:09.703Z,18.93
2017-06-13T06:57:09.760Z,18.88
2017-06-13T06:58:09.674Z,18.78
2017-06-13T06:59:09.660Z,18.8
2017-06-13T07:00:09.660Z,18.87
2017-06-13T07:01:09.644Z,18.88
2017-06-13T07:02:09.614Z,18.96
2017-06-13T07:03:09.597Z,19
2017-06-13T07:04:09.587Z,19.15
2017-06-13T07:05:09.590Z,19.26
2017-06-13T07:06:09.255Z,19.34
2017-06-13T07:07:09.544Z,19.48
2017-06-13T07:08:09.223Z,19.37
2017-06-13T07:09:09.512Z,19.49
2017-06-13T07:10:09.499Z,19.34
2017-06-13T07:11:09.170Z,19.22
2017-06-13T07:12:09.201Z,19.26
2017-06-13T07:13:09.198Z,19.22
2017-06-13T07:14:09.438Z,19.21
2017-06-13T07:15:09.529Z,19.3
2017-06-13T07:16:09.419Z,19.34
2017-06-13T07:17:09.094Z,19.38
2017-06-13T07:18:09.085Z,19.38
2017-06-13T07:19:09.122Z,19.33
2017-06-13T07:20:08.738Z,19.23
2017-06-13T07:21:09.349Z,19.18
2017-06-13T07:22:09.330Z,19.22
2017-06-13T07:23:09.322Z,19.21
2017-06-13T07:24:09.345Z,19.33
2017-06-13T07:25:09.350Z,19.38
2017-06-13T07:26:08.725Z,19.38
2017-06-13T07:27:09.258Z,19.51
2017-06-13T07:28:08.942Z,19.63
2017-06-13T07:29:08.932Z,19.71
2017-06-13T07:30:09.217Z,19.81
2017-06-13T07:31:08.902Z,19.95
2017-06-13T07:32:09.189Z,19.96
2017-06-13T07:33:09.178Z,19.99
2017-06-13T07:34:09.007Z,20.01
2017-06-13T07:35:08.844Z,20.07
2017-06-13T07:36:08.824Z,20.22
2017-06-13T07:37:08.817Z,20.2
2017-06-13T07:38:08.810Z,20.22
2017-06-13T07:39:08.812Z,20.28
2017-06-13T07:40:08.773Z,20.32
2017-06-13T07:41:09.062Z,20.35
2017-06-13T07:42:09.050Z,20.35
2017-06-13T07:43:08.745Z,20.16
2017-06-13T07:44:08.731Z,20.04
2017-06-13T07:45:09.049Z,19.96
2017-06-13T07:46:08.689Z,20.01
2017-06-13T07:47:08.980Z,19.92
2017-06-13T07:48:08.970Z,19.95
2017-06-13T07:49:08.681Z,19.95
2017-06-13T07:50:08.677Z,19.95
2017-06-13T07:51:08.640Z,20.07
2017-06-13T07:52:08.690Z,20.17
2017-06-13T07:53:08.302Z,20.26
2017-06-13T07:54:08.910Z,20.23
2017-06-13T07:55:08.885Z,20.29
2017-06-13T07:56:08.868Z,20.35
2017-06-13T07:57:08.849Z,20.16
2017-06-13T07:58:08.852Z,20.22
2017-06-13T07:59:08.853Z,20.26
2017-06-13T08:00:08.509Z,20.25
2017-06-13T08:01:08.490Z,20.47
2017-06-13T08:02:08.791Z,20.51
2017-06-13T08:03:08.471Z,20.49
2017-06-13T08:04:08.761Z,20.52
2017-06-13T08:05:08.738Z,20.38
2017-06-13T08:06:08.737Z,20.43
2017-06-13T08:07:08.922Z,20.32
2017-06-13T08:08:08.526Z,20.48
2017-06-13T08:09:08.718Z,20.4
2017-06-13T08:10:08.685Z,20.25
2017-06-13T08:11:08.372Z,20.11
2017-06-13T08:12:08.372Z,20.2
2017-06-13T08:13:08.033Z,20.14
2017-06-13T08:14:08.768Z,19.96
2017-06-13T08:15:08.623Z,20.04
2017-06-13T08:16:08.300Z,19.96
2017-06-13T08:17:08.022Z,19.91
2017-06-13T08:18:08.302Z,19.95
2017-06-13T08:19:07.939Z,19.96
2017-06-13T08:20:08.548Z,19.96
2017-06-13T08:21:08.548Z,20.08
2017-06-13T08:22:08.537Z,20.07
2017-06-13T08:23:08.585Z,20.06
2017-06-13T08:24:08.490Z,19.96
2017-06-13T08:25:08.483Z,20.06
2017-06-13T08:26:08.156Z,20.06
2017-06-13T08:27:08.161Z,20.2
2017-06-13T08:28:08.130Z,20.16
2017-06-13T08:29:08.530Z,20.2
2017-06-13T08:30:08.483Z,20.33
2017-06-13T08:31:08.472Z,20.33
2017-06-13T08:32:08.552Z,20.41
2017-06-13T08:33:08.371Z,20.7
2017-06-13T08:34:08.053Z,20.99
2017-06-13T08:35:08.395Z,21.21
2017-06-13T08:36:07.719Z,21.24
2017-06-13T08:37:08.320Z,21.31
2017-06-13T08:38:07.990Z,21.39
2017-06-13T08:39:07.990Z,21.44
2017-06-13T08:40:07.979Z,21.47
2017-06-13T08:41:07.969Z,21.5
2017-06-13T08:42:08.001Z,21.5
2017-06-13T08:43:07.626Z,21.52
2017-06-13T08:44:08.240Z,21.43
2017-06-13T08:45:08.223Z,21.36
2017-06-13T08:46:08.279Z,21.26
2017-06-13T08:47:08.191Z,21.26
2017-06-13T08:48:08.218Z,21.31
2017-06-13T08:49:07.864Z,21.1
2017-06-13T08:50:07.848Z,21.03
2017-06-13T08:51:08.158Z,20.84
2017-06-13T08:52:07.519Z,20.82
2017-06-13T08:53:07.822Z,20.72
2017-06-13T08:54:08.110Z,20.64
2017-06-13T08:55:08.098Z,20.64
2017-06-13T08:56:08.095Z,20.44
2017-06-13T08:57:08.085Z,20.54
2017-06-13T08:58:08.055Z,20.43
2017-06-13T08:59:07.733Z,20.47
2017-06-13T09:00:07.734Z,20.44
2017-06-13T09:01:07.715Z,20.49
2017-06-13T09:02:07.690Z,20.48
2017-06-13T09:03:07.699Z,20.51
2017-06-13T09:04:07.670Z,20.4
2017-06-13T09:05:07.985Z,20.54
2017-06-13T09:06:07.641Z,20.51
2017-06-13T09:07:07.934Z,20.64
2017-06-13T09:08:07.622Z,20.49
2017-06-13T09:09:07.913Z,20.51
2017-06-13T09:10:07.900Z,20.47
2017-06-13T09:11:07.569Z,20.57
2017-06-13T09:12:07.573Z,20.43
2017-06-13T09:13:07.570Z,20.49
2017-06-13T09:14:07.847Z,20.48
2017-06-13T09:15:07.540Z,20.52
2017-06-13T09:16:07.810Z,20.49
2017-06-13T09:17:07.505Z,20.7
2017-06-13T09:18:07.800Z,20.78
2017-06-13T09:19:07.784Z,20.88
2017-06-13T09:20:07.787Z,21.04
2017-06-13T09:21:07.755Z,21.13
2017-06-13T09:22:07.451Z,21.19
2017-06-13T09:23:07.438Z,21.22
2017-06-13T09:24:07.404Z,21.24
2017-06-13T09:25:07.401Z,21.1
2017-06-13T09:26:07.376Z,21.13
2017-06-13T09:27:07.670Z,21.1
2017-06-13T09:28:07.684Z,21.06
2017-06-13T09:29:07.352Z,20.99
2017-06-13T09:30:07.643Z,20.92
2017-06-13T09:31:07.322Z,21
2017-06-13T09:32:07.433Z,21.02
2017-06-13T09:33:07.304Z,21.06
2017-06-13T09:34:07.284Z,20.94
2017-06-13T09:35:07.630Z,20.89
2017-06-13T09:36:07.263Z,20.97
2017-06-13T09:37:07.634Z,20.88
2017-06-13T09:38:07.545Z,20.97
2017-06-13T09:39:07.600Z,20.74
2017-06-13T09:40:07.199Z,20.72
2017-06-13T09:41:07.520Z,20.72
2017-06-13T09:42:07.493Z,20.72
2017-06-13T09:43:07.532Z,20.79
2017-06-13T09:44:07.471Z,20.81
2017-06-13T09:45:07.161Z,20.97
2017-06-13T09:46:07.423Z,21.07
2017-06-13T09:47:07.164Z,21.04
2017-06-13T09:48:07.433Z,21.17
2017-06-13T09:49:07.101Z,21.1
2017-06-13T09:50:07.395Z,21.21
2017-06-13T09:51:07.381Z,21.29
2017-06-13T09:52:07.379Z,21.36
2017-06-13T09:53:07.037Z,21.46
2017-06-13T09:54:07.333Z,21.61
2017-06-13T09:55:07.317Z,21.52
2017-06-13T09:56:07.335Z,21.65
2017-06-13T09:57:07.294Z,21.79
2017-06-13T09:58:07.341Z,22.08
2017-06-13T09:59:07.272Z,22.22
2017-06-13T10:00:06.963Z,22.4
2017-06-13T10:01:07.248Z,22.39
2017-06-13T10:02:07.230Z,22.59
2017-06-13T10:03:07.247Z,22.65
2017-06-13T10:04:07.295Z,22.74
2017-06-13T10:05:07.200Z,22.61
2017-06-13T10:06:07.233Z,22.57
2017-06-13T10:07:07.174Z,22.52
2017-06-13T10:08:07.184Z,22.58
2017-06-13T10:09:07.174Z,22.62
2017-06-13T10:10:06.921Z,22.51
2017-06-13T10:11:06.822Z,22.54
2017-06-13T10:12:06.837Z,22.45
2017-06-13T10:13:06.806Z,22.4
2017-06-13T10:14:07.113Z,22.21
2017-06-13T10:15:07.084Z,21.97
2017-06-13T10:16:06.855Z,21.93
2017-06-13T10:17:07.072Z,21.97
2017-06-13T10:18:06.853Z,21.96
2017-06-13T10:19:07.056Z,22
2017-06-13T10:20:06.741Z,21.96
2017-06-13T10:21:07.014Z,21.9
2017-06-13T10:22:06.706Z,21.88
2017-06-13T10:23:06.771Z,21.71
2017-06-13T10:24:06.985Z,21.59
2017-06-13T10:25:07.042Z,21.37
2017-06-13T10:26:06.717Z,21.49
2017-06-13T10:27:06.964Z,21.62
2017-06-13T10:28:06.631Z,21.71
2017-06-13T10:29:06.911Z,22.12
2017-06-13T10:30:06.911Z,22.45
2017-06-13T10:31:07.027Z,22.54
2017-06-13T10:32:06.894Z,22.66
2017-06-13T10:33:06.893Z,22.84
2017-06-13T10:34:06.939Z,22.8
2017-06-13T10:35:06.633Z,22.58
2017-06-13T10:36:06.652Z,22.5
2017-06-13T10:37:06.844Z,22.12
2017-06-13T10:38:06.845Z,21.99
2017-06-13T10:39:06.835Z,21.83
2017-06-13T10:40:06.929Z,21.8
2017-06-13T10:41:06.890Z,21.77
2017-06-13T10:42:06.780Z,21.81
2017-06-13T10:43:06.865Z,21.83
2017-06-13T10:44:06.458Z,21.96
2017-06-13T10:45:06.763Z,21.74
2017-06-13T10:46:06.432Z,21.79
2017-06-13T10:47:06.418Z,21.88
2017-06-13T10:48:06.404Z,21.77
2017-06-13T10:49:06.717Z,21.68
2017-06-13T10:50:06.694Z,21.59
2017-06-13T10:51:06.392Z,21.59
2017-06-13T10:52:06.655Z,21.66
2017-06-13T10:53:06.693Z,21.79
2017-06-13T10:54:06.342Z,21.74
2017-06-13T10:55:06.725Z,21.73
2017-06-13T10:56:06.612Z,21.76
2017-06-13T10:57:06.011Z,21.76
2017-06-13T10:58:06.593Z,21.83
2017-06-13T10:59:06.594Z,21.93
2017-06-13T11:00:06.581Z,22.03
2017-06-13T11:01:06.714Z,22.25
2017-06-13T11:02:06.240Z,22.4
2017-06-13T11:03:06.539Z,22.51
2017-06-13T11:04:06.520Z,22.65
2017-06-13T11:05:05.894Z,23.04
2017-06-13T11:06:06.211Z,23.25
2017-06-13T11:07:06.485Z,23.38
2017-06-13T11:08:06.544Z,23.36
2017-06-13T11:09:06.164Z,23.32
2017-06-13T11:10:06.455Z,23.21
2017-06-13T11:11:06.135Z,22.99
2017-06-13T11:12:06.423Z,22.85
2017-06-13T11:13:06.112Z,22.55
2017-06-13T11:14:06.091Z,22.4
2017-06-13T11:15:06.103Z,22.21
2017-06-13T11:16:06.065Z,22.08
2017-06-13T11:17:06.366Z,21.9
2017-06-13T11:18:06.072Z,21.71
2017-06-13T11:19:06.359Z,21.59
2017-06-13T11:20:06.094Z,21.62
2017-06-13T11:21:06.004Z,21.56
2017-06-13T11:22:06.303Z,21.68
2017-06-13T11:23:06.305Z,21.62
2017-06-13T11:24:05.966Z,21.79
2017-06-13T11:25:05.963Z,21.83
2017-06-13T11:26:06.255Z,21.86
2017-06-13T11:27:06.254Z,21.9
2017-06-13T11:28:05.623Z,21.96
2017-06-13T11:29:05.929Z,22.08
2017-06-13T11:30:05.898Z,22.12
2017-06-13T11:31:06.206Z,22.11
2017-06-13T11:32:06.193Z,22.11
2017-06-13T11:33:06.178Z,22.12
2017-06-13T11:34:06.176Z,22.33
2017-06-13T11:35:05.854Z,22.37
2017-06-13T11:36:06.140Z,22.37
2017-06-13T11:37:06.117Z,22.4
2017-06-13T11:38:06.125Z,22.15
2017-06-13T11:39:06.125Z,22.17
2017-06-13T11:40:06.087Z,22.2
2017-06-13T11:41:06.102Z,22.36
2017-06-13T11:42:05.747Z,22.25
2017-06-13T11:43:06.045Z,22.25
2017-06-13T11:44:05.747Z,22.3
2017-06-13T11:45:05.716Z,22.21
2017-06-13T11:46:06.026Z,22.35
2017-06-13T11:47:06.006Z,22.32
2017-06-13T11:48:05.705Z,22.4
2017-06-13T11:49:06.020Z,22.37
2017-06-13T11:50:05.374Z,22.4
2017-06-13T11:51:05.953Z,22.27
2017-06-13T11:52:05.956Z,22.35
2017-06-13T11:53:05.654Z,22.45
2017-06-13T11:54:05.618Z,22.42
2017-06-13T11:55:05.603Z,22.5
2017-06-13T11:56:05.605Z,22.36
2017-06-13T11:57:05.587Z,22.37
2017-06-13T11:58:05.573Z,22.32
2017-06-13T11:59:05.253Z,22.32
2017-06-13T12:00:05.853Z,22.36
2017-06-13T12:01:05.856Z,22.37
2017-06-13T12:02:05.522Z,22.39
2017-06-13T12:03:05.555Z,22.33
2017-06-13T12:04:05.503Z,22.42
2017-06-13T12:05:05.791Z,22.35
2017-06-13T12:06:05.787Z,22.43
2017-06-13T12:07:05.462Z,22.57
2017-06-13T12:08:05.454Z,22.73
2017-06-13T12:09:05.805Z,22.94
2017-06-13T12:10:05.425Z,22.84
2017-06-13T12:11:05.729Z,22.85
2017-06-13T12:12:05.102Z,23.02
2017-06-13T12:13:05.089Z,23.04
2017-06-13T12:14:05.706Z,23.07
2017-06-13T12:15:05.683Z,23.14
2017-06-13T12:16:05.674Z,23.24
2017-06-13T12:17:05.674Z,23.38
2017-06-13T12:18:05.653Z,23.28
2017-06-13T12:19:05.334Z,23.27
2017-06-13T12:20:05.014Z,23.27
2017-06-13T12:21:05.604Z,23.12
2017-06-13T12:22:05.292Z,22.97
2017-06-13T12:23:05.294Z,22.97
2017-06-13T12:24:05.284Z,22.88
2017-06-13T12:25:05.572Z,23.13
2017-06-13T12:26:05.554Z,23.19
2017-06-13T12:27:05.535Z,23.21
2017-06-13T12:28:05.533Z,23.21
2017-06-13T12:29:05.214Z,23.09
2017-06-13T12:30:05.211Z,23.14
2017-06-13T12:31:05.183Z,23.02
2017-06-13T12:32:05.504Z,22.89
2017-06-13T12:33:04.878Z,22.92
2017-06-13T12:34:05.465Z,22.82
2017-06-13T12:35:05.460Z,22.65
2017-06-13T12:36:05.149Z,22.72
2017-06-13T12:37:04.925Z,22.77
2017-06-13T12:38:05.177Z,22.67
2017-06-13T12:39:05.113Z,22.58
2017-06-13T12:40:05.392Z,22.61
2017-06-13T12:41:05.380Z,22.66
2017-06-13T12:42:05.092Z,22.55
2017-06-13T12:43:05.077Z,22.62
2017-06-13T12:44:05.363Z,22.67
2017-06-13T12:45:05.096Z,22.43
2017-06-13T12:46:05.122Z,22.32
2017-06-13T12:47:05.026Z,22.32
2017-06-13T12:48:05.096Z,22.18
2017-06-13T12:49:05.004Z,22.11
2017-06-13T12:50:05.088Z,22.12
2017-06-13T12:51:05.363Z,22.14
2017-06-13T12:52:04.965Z,22.17
2017-06-13T12:53:04.937Z,22.15
2017-06-13T12:54:05.234Z,22.17
2017-06-13T12:55:04.926Z,21.93
2017-06-13T12:56:05.014Z,21.95